• Join FlightAware (Why Join?)
  • Login
  • US Flag 
12:19AM EST


 

Airport Tracker/Info


-or-


 

Live Flight TrackerFlight Track Log ✈ N1570N ✈ 31-Jan-2014 ✈ KBPK - KLIT

Flight Track Log - Related Links

Times and Time Zones

All times are in EST time to prevent confusion due to time zone crossing. See the N1570N flight status page for this flight to view local times or setup timezone preferences in your user account.

Time Position Orientation Groundspeed Altitude Reporting Facility
EST Latitude Longitude Course Direction KTS MPH feet Rate Location/Type
07:24PM 36.3317 -92.3936 173° South 144 166 5,500  Level Memphis Center
07:25PM 36.2914 -92.3925 179° South 123 142 6,900 480 Climbing Memphis Center
07:27PM 36.1969 -92.3831 175° South 174 200 7,000  Climbing Memphis Center
07:28PM 36.1015 -92.4189 174° South  Level FlightAware Approximate
07:28PM 36.1450 -92.3797 177° South 182 209 7,000  Level Memphis Center
07:29PM 36.0570 -92.4129 173° South  Level FlightAware Approximate
07:29PM 36.0928 -92.3728 174° South 185 213 7,000  Level Memphis Center
07:30PM 36.0408 -92.3661 174° South 187 215 7,000  Level Memphis Center
07:31PM 35.9764 -92.3597 175° South 190 219 7,000  Level Memphis Center
07:32PM 35.9242 -92.3536 175° South 190 219 7,000 -60 Level Memphis Center
07:33PM 35.8717 -92.3486 176° South 190 219 6,900  Descending Memphis Center
07:34PM 35.8186 -92.3428 175° South 190 219 7,000  Climbing Memphis Center
07:35PM 35.7653 -92.3375 175° South 191 220 7,000  Level Memphis Center
07:36PM 35.7119 -92.3311 174° South 192 221 7,000  Level Memphis Center
07:37PM 35.6592 -92.3256 175° South 191 220 7,000  Level Memphis Center
07:38PM 35.5947 -92.3192 175° South 192 221 7,000  Level Memphis Center
07:39PM 35.5417 -92.3131 175° South 192 221 7,000 -60 Level Memphis Center
07:40PM 35.4883 -92.3075 175° South 192 221 6,900  Descending Memphis Center
07:41PM 35.4633 -92.3050 175° South 192 221 7,000 120 Climbing Memphis Center
07:41PM 35.4422 -92.3036 177° South 191 220 7,000  Level Memphis Center
07:41PM 35.4356 -92.3014 165° South 191 220 7,000  Level Memphis Center
07:42PM 35.3878 -92.2969 176° South 191 220 7,000  Level Memphis Center
07:43PM 35.3817 -92.2956 170° South 192 221 7,000  Level Memphis Center
07:43PM 35.3372 -92.2925 177° South 190 219 7,000  Level Memphis Center
07:44PM 35.3286 -92.2889 161° South 192 221 7,000 -600 Level Memphis Center
07:44PM 35.2806 -92.2858 177° South 196 226 6,400 -600 Descending Memphis Center
07:45PM 35.2744 -92.2831 160° South 192 221 6,400 -420 Level Memphis Center
07:45PM 35.2219 -92.2792 177° South 200 230 6,000 -540 Descending Memphis Center
07:46PM 35.2081 -92.2758 169° South 196 226 5,900 -840 Descending Memphis Center
07:46PM 35.1694 -92.2725 176° South 197 227 5,200 -900 Descending Memphis Center
07:47PM 35.1528 -92.2694 171° South 197 227 5,000 -720 Descending Memphis Center
07:47PM 35.1125 -92.2658 176° South 196 226 4,500 -720 Descending Memphis Center
07:48PM 35.0989 -92.2644 175° South 197 227 4,300 -540 Descending Memphis Center
07:48PM 35.0644 -92.2614 176° South 180 207 4,000 -420 Descending Memphis Center
07:49PM 35.0497 -92.2594 174° South 189 217 3,900 -120 Descending Memphis Center
07:50PM 35.0031 -92.2550 176° South 179 206 3,900 -240 Level Memphis Center
07:50PM 34.9700 -92.2519 176° South 168 193 3,600 -540 Descending Memphis Center
07:51PM 34.9567 -92.2506 175° South 172 198 3,400 -600 Descending Memphis Center
07:51PM 34.9197 -92.2475 176° South 171 197 3,000 -420 Descending Memphis Center
07:52PM 34.8994 -92.2433 170° South 172 198 3,000 -120 Level Memphis Center
07:52PM 34.8692 -92.2406 176° South 160 184 2,900 -240 Descending Memphis Center
07:53PM 34.8556 -92.2372 169° South 166 191 2,800 -900 Descending Memphis Center
07:53PM 34.8292 -92.2356 177° South 148 170 2,000 -1,080 Descending Memphis Center
07:54PM 34.8153 -92.2350 178° South 156 180 1,700 -720 Descending Memphis Center
07:54PM 34.7897 -92.2381 186° South 136 157 1,300 -600 Descending Memphis Center
07:55PM 34.7786 -92.2392 185° South 144 166 1,100 -600 Descending Memphis Center
07:55PM 34.7603 -92.2372 175° South 101 116 700 -660 Descending Memphis Center
07:57PM 34.7294 -92.2248 159° South  Level Estimated
08:04PM 34.7294 -92.2248 168° South  Level Estimated